VNKT/KTM METAR and TAF weather

Enter ICAO airport designator
Station Type Date Time Source
VNKT METAR 2021/01/16 03:20 UTC NOAA

VNKT 160320Z 00000KT 1500 BR FEW010 10/08 Q1017 NOSIG


Station Type Date Time Source
VNKT Decoded METAR 2021/01/16 03:20 UTC NOAA

Kathmandu Airport, Nepal (VNKT) 27-42N 085-22E 1337M
Jan 15, 2021 - 10:20 PM EST / 2021.01.16 0320 UTC
Wind: Calm:0
Visibility: less than 1 mile:0
Sky conditions: mostly clear
Weather: mist
Temperature: 50 F (10 C)
Dew Point: 46 F (8 C)
Relative Humidity: 87%
Pressure (altimeter): 30.03 in. Hg (1017 hPa)
ob: VNKT 160320Z 00000KT 1500 BR FEW010 10/08 Q1017 NOSIG
cycle: 3

Station Type Date Time Source
VNKT TAF 2021/01/15 00:39 UTC NOAA

TAF VNKT 152300Z 1600/1624 00000KT 3000 BR FEW010 SCT025 PROB40 1601/1603 1500 BR
BECMG 1604/1606 11003KT 4000 BR FEW010 SCT100
BECMG 1607/1608 25006KT 5000 HZ FEW015
BECMG 1614/1615 11003KT 4000 BR FEW015 SCT025

Example: see airport list